createdAt,value
2023-02-12T00:02:04.492Z,16.65
2023-02-12T00:04:33.120Z,16.30
2023-02-12T00:07:03.176Z,17.13
2023-02-12T00:09:31.760Z,16.63
2023-02-12T00:12:00.482Z,17.20
2023-02-12T00:14:29.444Z,17.23
2023-02-12T00:16:57.681Z,16.38
2023-02-12T00:19:26.936Z,16.48
2023-02-12T00:21:55.144Z,17.83
2023-02-12T00:24:25.257Z,17.73
2023-02-12T00:26:53.578Z,18.05
2023-02-12T00:29:22.130Z,15.95
2023-02-12T00:31:50.797Z,17.75
2023-02-12T00:34:19.490Z,18.02
2023-02-12T00:36:47.870Z,17.55
2023-02-12T00:39:16.614Z,18.05
2023-02-12T00:41:46.528Z,16.98
2023-02-12T00:44:15.324Z,18.15
2023-02-12T00:46:43.737Z,17.95
2023-02-12T00:49:12.729Z,18.70
2023-02-12T00:51:41.150Z,18.55
2023-02-12T00:54:09.952Z,17.60
2023-02-12T00:56:38.173Z,18.75
2023-02-12T00:59:08.327Z,19.42
2023-02-12T01:01:37.109Z,19.35
2023-02-12T01:04:06.031Z,19.25
2023-02-12T01:06:34.613Z,20.90
2023-02-12T01:09:03.373Z,23.25
2023-02-12T01:11:31.718Z,27.40
2023-02-12T01:14:01.162Z,25.35
2023-02-12T01:16:33.860Z,21.77
2023-02-12T01:19:02.911Z,23.70
2023-02-12T01:21:33.477Z,22.65
2023-02-12T01:24:02.304Z,23.33
2023-02-12T01:26:31.817Z,23.80
2023-02-12T01:29:02.517Z,24.20
2023-02-12T01:31:34.296Z,23.88
2023-02-12T01:34:03.164Z,21.73
2023-02-12T01:36:31.869Z,22.40
2023-02-12T01:39:03.076Z,22.42
2023-02-12T01:41:33.736Z,22.63
2023-02-12T01:44:08.897Z,21.50
2023-02-12T01:46:39.001Z,21.25
2023-02-12T01:49:10.335Z,23.35
2023-02-12T01:51:39.120Z,23.70
2023-02-12T01:54:09.123Z,24.00
2023-02-12T01:56:38.533Z,22.88
2023-02-12T01:59:07.200Z,22.50
2023-02-12T02:01:36.150Z,24.30
2023-02-12T02:04:08.622Z,23.95
2023-02-12T02:06:41.371Z,22.38
2023-02-12T02:09:10.354Z,22.92
2023-02-12T02:11:55.958Z,23.48
2023-02-12T02:14:33.781Z,24.45
2023-02-12T02:17:21.917Z,22.40
2023-02-12T02:20:19.705Z,22.83
2023-02-12T02:22:52.597Z,23.92
2023-02-12T02:25:56.283Z,22.23
2023-02-12T02:28:38.261Z,21.83
2023-02-12T02:31:12.948Z,22.67
2023-02-12T02:33:47.473Z,21.35
2023-02-12T02:36:25.834Z,24.02
2023-02-12T02:38:57.408Z,21.77
2023-02-12T02:41:30.832Z,24.02
2023-02-12T02:43:59.820Z,24.85
2023-02-12T02:46:35.010Z,22.05
2023-02-12T02:49:06.507Z,21.40
2023-02-12T02:51:38.972Z,20.65
2023-02-12T02:54:11.201Z,21.30
2023-02-12T02:56:41.250Z,20.23
2023-02-12T02:59:12.476Z,19.30
2023-02-12T03:01:44.364Z,18.83
2023-02-12T03:04:17.950Z,19.58
2023-02-12T03:06:50.062Z,18.17
2023-02-12T03:09:22.675Z,17.70
2023-02-12T03:11:51.776Z,17.60
2023-02-12T03:14:23.898Z,19.40
2023-02-12T03:16:57.110Z,18.33
2023-02-12T03:19:27.339Z,20.75
2023-02-12T03:21:59.460Z,20.93
2023-02-12T03:24:30.664Z,18.63
2023-02-12T03:27:10.024Z,18.95
2023-02-12T03:29:39.087Z,17.33
2023-02-12T03:32:18.345Z,17.10
2023-02-12T03:34:50.631Z,19.02
2023-02-12T03:37:23.575Z,16.60
2023-02-12T03:39:56.559Z,17.65
2023-02-12T03:42:32.475Z,17.58
2023-02-12T03:45:04.172Z,16.85
2023-02-12T03:47:41.342Z,16.75
2023-02-12T03:50:14.198Z,18.48
2023-02-12T03:52:43.485Z,16.15
2023-02-12T03:55:12.946Z,16.17
2023-02-12T03:57:44.141Z,13.65
2023-02-12T04:00:15.807Z,14.23
2023-02-12T04:02:46.191Z,15.10
2023-02-12T04:05:19.248Z,15.00
2023-02-12T04:07:48.557Z,15.48
2023-02-12T04:10:17.250Z,14.30
2023-02-12T04:12:54.398Z,13.27
2023-02-12T04:15:46.735Z,13.10
2023-02-12T04:18:21.456Z,13.57
2023-02-12T04:20:55.366Z,14.63
2023-02-12T04:23:43.697Z,13.10
2023-02-12T04:26:19.090Z,13.98
2023-02-12T04:28:52.312Z,13.02
2023-02-12T04:31:25.272Z,15.40
2023-02-12T04:34:02.057Z,14.70
2023-02-12T04:36:34.955Z,13.43
2023-02-12T04:39:06.318Z,12.63
2023-02-12T04:41:34.999Z,13.82
2023-02-12T04:44:19.294Z,12.32
2023-02-12T04:46:47.772Z,11.80
2023-02-12T04:49:19.527Z,12.55
2023-02-12T04:54:17.323Z,12.32
2023-02-12T04:56:46.557Z,12.52
2023-02-12T04:59:15.861Z,12.75
2023-02-12T05:01:45.665Z,13.38
2023-02-12T05:04:16.364Z,13.05
2023-02-12T05:06:47.222Z,14.10
2023-02-12T05:09:18.227Z,14.50
2023-02-12T05:11:46.887Z,14.00
2023-02-12T05:14:16.520Z,15.88
2023-02-12T05:16:45.219Z,15.68
2023-02-12T05:19:13.831Z,13.93
2023-02-12T05:21:42.206Z,12.98
2023-02-12T05:24:12.718Z,14.10
2023-02-12T05:26:40.919Z,14.30
2023-02-12T05:29:09.610Z,13.68
2023-02-12T05:31:37.939Z,13.05
2023-02-12T05:34:08.551Z,13.82
2023-02-12T05:36:37.168Z,13.07
2023-02-12T05:39:07.546Z,12.98
2023-02-12T05:41:37.269Z,12.75
2023-02-12T05:44:06.713Z,13.25
2023-02-12T05:46:35.346Z,13.05
2023-02-12T05:49:03.870Z,14.02
2023-02-12T05:51:33.389Z,13.82
2023-02-12T05:54:04.753Z,14.20
2023-02-12T05:56:34.533Z,15.65
2023-02-12T05:59:07.197Z,15.00
2023-02-12T06:01:37.300Z,16.23
2023-02-12T06:04:07.847Z,16.10
2023-02-12T06:06:36.698Z,15.27
2023-02-12T06:09:05.536Z,14.65
2023-02-12T06:11:33.744Z,16.30
2023-02-12T06:14:05.024Z,15.77
2023-02-12T06:16:33.808Z,16.17
2023-02-12T06:19:04.019Z,14.27
2023-02-12T06:21:32.871Z,14.13
2023-02-12T06:24:01.805Z,13.98
2023-02-12T06:26:30.492Z,13.25
2023-02-12T06:28:59.050Z,12.27
2023-02-12T06:31:30.903Z,11.40
2023-02-12T06:34:01.947Z,11.38
2023-02-12T06:36:30.488Z,11.07
2023-02-12T06:38:58.968Z,11.55
2023-02-12T06:41:28.070Z,10.52
2023-02-12T06:43:56.530Z,11.43
2023-02-12T06:46:25.147Z,10.35
2023-02-12T06:48:55.839Z,11.15
2023-02-12T06:51:24.123Z,9.02
2023-02-12T06:53:53.511Z,9.35
2023-02-12T06:56:23.188Z,10.20
2023-02-12T06:58:55.079Z,8.68
2023-02-12T07:01:25.355Z,10.07
2023-02-12T07:03:57.358Z,9.13
2023-02-12T07:06:26.942Z,10.77
2023-02-12T07:08:55.895Z,8.63
2023-02-12T07:11:25.581Z,8.05
2023-02-12T07:13:54.118Z,6.95
2023-02-12T07:16:22.727Z,8.40
2023-02-12T07:18:51.647Z,11.50
2023-02-12T07:21:21.437Z,7.75
2023-02-12T07:23:51.572Z,10.40
2023-02-12T07:26:21.546Z,11.45
2023-02-12T07:28:50.466Z,8.20
2023-02-12T07:31:20.343Z,8.48
2023-02-12T07:33:49.255Z,9.73
2023-02-12T07:36:19.758Z,7.30
2023-02-12T07:38:50.073Z,6.55
2023-02-12T07:41:20.724Z,5.55
2023-02-12T07:43:50.598Z,5.97
2023-02-12T07:46:20.907Z,5.63
2023-02-12T07:48:49.995Z,6.57
2023-02-12T07:51:20.061Z,5.85
2023-02-12T07:53:50.444Z,5.68
2023-02-12T07:56:21.142Z,5.13
2023-02-12T07:58:51.196Z,6.28
2023-02-12T08:01:21.535Z,5.68
2023-02-12T08:03:51.891Z,4.93
2023-02-12T08:06:23.086Z,5.22
2023-02-12T08:08:54.195Z,5.20
2023-02-12T08:11:23.115Z,5.45
2023-02-12T08:13:52.095Z,5.05
2023-02-12T08:16:22.485Z,6.55
2023-02-12T08:18:51.813Z,6.28
2023-02-12T08:21:21.685Z,5.25
2023-02-12T08:23:51.107Z,9.98
2023-02-12T08:26:22.871Z,4.20
2023-02-12T08:28:53.637Z,3.92
2023-02-12T08:31:23.449Z,6.27
2023-02-12T08:33:53.665Z,4.35
2023-02-12T08:36:24.124Z,3.85
2023-02-12T08:38:53.198Z,4.38
2023-02-12T08:41:24.825Z,5.63
2023-02-12T08:43:55.159Z,5.50
2023-02-12T08:46:25.650Z,5.20
2023-02-12T08:48:55.584Z,3.78
2023-02-12T08:51:26.208Z,3.25
2023-02-12T08:53:56.659Z,3.97
2023-02-12T08:56:27.438Z,3.47
2023-02-12T08:58:56.000Z,4.53
2023-02-12T09:01:26.630Z,3.65
2023-02-12T09:03:55.349Z,3.63
2023-02-12T09:06:25.863Z,3.30
2023-02-12T09:08:56.030Z,3.53
2023-02-12T09:11:30.870Z,3.28
2023-02-12T09:14:01.087Z,3.63
2023-02-12T09:16:30.896Z,3.85
2023-02-12T09:18:59.953Z,3.67
2023-02-12T09:21:31.374Z,3.10
2023-02-12T09:24:00.117Z,3.42
2023-02-12T09:26:29.784Z,3.95
2023-02-12T09:28:58.382Z,4.60
2023-02-12T09:31:29.239Z,4.55
2023-02-12T09:34:01.040Z,5.38
2023-02-12T09:38:59.542Z,4.43
2023-02-12T09:42:09.279Z,5.07
2023-02-12T09:44:43.488Z,5.10
2023-02-12T09:47:16.800Z,3.88
2023-02-12T09:50:23.955Z,3.70
2023-02-12T09:52:52.682Z,3.90
2023-02-12T09:55:21.566Z,4.53
2023-02-12T09:57:54.411Z,4.75
2023-02-12T10:00:28.121Z,4.82
2023-02-12T10:02:56.732Z,5.15
2023-02-12T10:05:29.075Z,12.43
2023-02-12T10:08:33.629Z,6.97
2023-02-12T10:11:12.554Z,6.60
2023-02-12T10:13:49.545Z,7.30
2023-02-12T10:16:28.072Z,6.57
2023-02-12T10:19:15.328Z,4.55
2023-02-12T10:21:52.564Z,4.35
2023-02-12T10:24:31.357Z,4.00
2023-02-12T10:27:02.240Z,4.47
2023-02-12T10:29:35.575Z,5.00
2023-02-12T10:32:07.329Z,4.82
2023-02-12T10:34:37.656Z,4.38
2023-02-12T10:39:37.932Z,4.60
2023-02-12T10:42:13.685Z,5.78
2023-02-12T10:44:43.427Z,12.25
2023-02-12T10:47:16.279Z,8.73
2023-02-12T10:49:44.630Z,4.68
2023-02-12T10:52:19.440Z,4.85
2023-02-12T10:54:49.656Z,5.72
2023-02-12T10:59:53.378Z,5.13
2023-02-12T11:02:26.328Z,4.53
2023-02-12T11:04:56.412Z,4.57
2023-02-12T11:07:26.623Z,5.10
2023-02-12T11:09:56.924Z,5.00
2023-02-12T11:12:33.254Z,5.55
2023-02-12T11:15:05.411Z,6.35
2023-02-12T11:17:37.479Z,6.72
2023-02-12T11:20:22.707Z,6.82
2023-02-12T11:22:53.399Z,6.80
2023-02-12T11:25:23.636Z,7.85
2023-02-12T11:28:05.312Z,7.60
2023-02-12T11:30:35.815Z,7.38
2023-02-12T11:33:17.884Z,7.22
2023-02-12T11:35:53.922Z,8.70
2023-02-12T11:38:28.642Z,6.93
2023-02-12T11:41:00.792Z,8.82
2023-02-12T11:43:31.203Z,10.25
2023-02-12T11:46:02.182Z,5.97
2023-02-12T11:48:33.419Z,5.45
2023-02-12T11:53:32.792Z,6.35
2023-02-12T11:56:03.761Z,6.35
2023-02-12T11:58:33.230Z,6.15
2023-02-12T12:01:12.303Z,5.82
2023-02-12T12:03:47.132Z,6.70
2023-02-12T12:06:23.506Z,8.20
2023-02-12T12:08:57.462Z,7.07
2023-02-12T12:11:30.028Z,5.45
2023-02-12T12:14:01.014Z,5.22
2023-02-12T12:16:50.504Z,5.15
2023-02-12T12:19:39.291Z,4.13
2023-02-12T12:22:15.696Z,4.60
2023-02-12T12:24:48.996Z,5.55
2023-02-12T12:27:46.510Z,7.15
2023-02-12T12:30:22.176Z,4.10
2023-02-12T12:32:54.444Z,8.57
2023-02-12T12:35:28.393Z,12.75
2023-02-12T12:38:00.033Z,7.70
2023-02-12T12:40:40.124Z,6.05
2023-02-12T12:43:13.002Z,6.88
2023-02-12T12:46:01.649Z,5.35
2023-02-12T12:48:45.608Z,5.93
2023-02-12T12:51:24.848Z,9.40
2023-02-12T12:54:05.228Z,8.63
2023-02-12T12:56:46.989Z,9.45
2023-02-12T12:59:44.025Z,5.95
2023-02-12T13:02:38.358Z,9.85
2023-02-12T13:05:41.240Z,8.20
2023-02-12T13:08:18.993Z,6.05
2023-02-12T13:10:49.881Z,8.18
2023-02-12T13:13:30.605Z,6.75
2023-02-12T13:16:06.612Z,8.30
2023-02-12T13:18:49.217Z,9.60
2023-02-12T13:21:31.008Z,7.40
2023-02-12T13:24:04.799Z,6.97
2023-02-12T13:26:43.178Z,6.75
2023-02-12T13:29:16.696Z,6.45
2023-02-12T13:31:49.608Z,6.00
2023-02-12T13:34:20.060Z,5.03
2023-02-12T13:36:50.885Z,4.78
2023-02-12T13:39:27.003Z,5.35
2023-02-12T13:42:03.531Z,5.43
2023-02-12T13:44:37.322Z,7.72
2023-02-12T13:47:12.555Z,8.00
2023-02-12T13:49:46.130Z,9.52
2023-02-12T13:52:22.822Z,11.10
2023-02-12T13:54:59.607Z,19.42
2023-02-12T13:57:28.054Z,15.60
2023-02-12T13:59:58.345Z,13.77
2023-02-12T14:02:45.228Z,13.77
2023-02-12T14:05:27.191Z,15.27
2023-02-12T14:10:29.469Z,44.53
2023-02-12T14:13:08.824Z,72.72
2023-02-12T14:15:39.444Z,33.42
2023-02-12T14:18:23.924Z,25.27
2023-02-12T14:21:25.630Z,20.45
2023-02-12T14:23:55.678Z,14.55
2023-02-12T14:26:25.177Z,16.08
2023-02-12T14:28:54.928Z,13.90
2023-02-12T14:31:40.974Z,14.73
2023-02-12T14:35:14.450Z,19.33
2023-02-12T14:37:58.348Z,14.65
2023-02-12T14:40:56.625Z,16.85
2023-02-12T14:43:56.449Z,18.63
2023-02-12T14:46:55.544Z,16.25
2023-02-12T14:49:44.966Z,16.92
2023-02-12T14:52:20.745Z,17.40
2023-02-12T14:54:51.542Z,19.05
2023-02-12T14:57:27.805Z,14.57
2023-02-12T14:59:58.044Z,13.75
2023-02-12T15:02:28.536Z,17.63
2023-02-12T15:05:01.290Z,13.32
2023-02-12T15:07:33.273Z,14.27
2023-02-12T15:10:10.237Z,13.45
2023-02-12T15:12:42.902Z,12.48
2023-02-12T15:15:17.732Z,12.25
2023-02-12T15:17:58.157Z,11.50
2023-02-12T15:20:32.790Z,11.05
2023-02-12T15:23:03.374Z,11.45
2023-02-12T15:25:34.137Z,10.63
2023-02-12T15:28:07.584Z,11.57
2023-02-12T15:30:37.661Z,11.50
2023-02-12T15:33:08.383Z,12.02
2023-02-12T15:35:38.937Z,11.30
2023-02-12T15:38:08.728Z,12.63
2023-02-12T15:40:37.422Z,16.38
2023-02-12T15:43:08.673Z,15.70
2023-02-12T15:45:40.101Z,14.90
2023-02-12T15:48:18.635Z,21.08
2023-02-12T15:50:51.055Z,23.60
2023-02-12T15:53:19.619Z,22.77
2023-02-12T15:55:49.677Z,18.83
2023-02-12T15:58:25.376Z,22.85
2023-02-12T16:00:54.864Z,26.42
2023-02-12T16:03:24.882Z,31.20
2023-02-12T16:05:54.810Z,30.30
2023-02-12T16:08:24.654Z,29.63
2023-02-12T16:10:54.829Z,29.27
2023-02-12T16:13:28.548Z,29.42
2023-02-12T16:16:08.709Z,32.05
2023-02-12T16:18:37.255Z,30.58
2023-02-12T16:21:08.699Z,36.28
2023-02-12T16:23:37.306Z,34.28
2023-02-12T16:26:06.349Z,32.33
2023-02-12T16:28:36.441Z,28.95
2023-02-12T16:31:11.483Z,24.42
2023-02-12T16:33:47.986Z,23.27
2023-02-12T16:36:30.485Z,22.30
2023-02-12T16:39:01.154Z,22.55
2023-02-12T16:41:31.910Z,20.92
2023-02-12T16:44:26.752Z,21.80
2023-02-12T16:46:57.319Z,21.77
2023-02-12T16:49:27.245Z,24.98
2023-02-12T16:52:36.455Z,24.95
2023-02-12T16:55:05.757Z,28.85
2023-02-12T16:57:34.295Z,25.88
2023-02-12T17:00:04.881Z,22.80
2023-02-12T17:02:33.938Z,23.63
2023-02-12T17:05:05.632Z,24.08
2023-02-12T17:07:35.406Z,26.02
2023-02-12T17:10:04.666Z,27.88
2023-02-12T17:12:33.330Z,27.42
2023-02-12T17:15:06.062Z,23.63
2023-02-12T17:17:34.982Z,32.13
2023-02-12T17:20:03.825Z,58.67
2023-02-12T17:22:32.798Z,52.70
2023-02-12T17:25:01.049Z,47.13
2023-02-12T17:27:29.734Z,58.67
2023-02-12T17:29:58.015Z,65.10
2023-02-12T17:32:28.144Z,51.78
2023-02-12T17:34:56.550Z,48.30
2023-02-12T17:37:25.582Z,41.10
2023-02-12T17:39:55.383Z,39.47
2023-02-12T17:42:24.010Z,50.88
2023-02-12T17:44:52.457Z,71.50
2023-02-12T17:47:21.214Z,44.15
2023-02-12T17:49:51.065Z,42.40
2023-02-12T17:52:20.015Z,39.92
2023-02-12T17:54:49.133Z,42.20
2023-02-12T17:57:18.786Z,42.20
2023-02-12T17:59:47.257Z,36.45
2023-02-12T18:02:15.985Z,40.83
2023-02-12T18:04:44.418Z,43.90
2023-02-12T18:07:14.472Z,98.70
2023-02-12T18:09:42.927Z,84.25
2023-02-12T18:12:11.570Z,52.08
2023-02-12T18:14:40.040Z,44.80
2023-02-12T18:17:08.801Z,35.45
2023-02-12T18:19:37.252Z,35.80
2023-02-12T18:22:06.013Z,42.13
2023-02-12T18:24:36.620Z,37.55
2023-02-12T18:27:05.459Z,39.83
2023-02-12T18:29:33.824Z,42.45
2023-02-12T18:32:02.583Z,42.75
2023-02-12T18:34:30.907Z,49.30
2023-02-12T18:36:59.922Z,51.13
2023-02-12T18:39:29.565Z,52.60
2023-02-12T18:41:59.728Z,53.35
2023-02-12T18:44:28.084Z,51.28
2023-02-12T18:46:59.247Z,52.10
2023-02-12T18:49:28.007Z,48.53
2023-02-12T18:51:56.959Z,50.17
2023-02-12T18:54:25.320Z,44.13
2023-02-12T18:56:54.906Z,46.45
2023-02-12T18:59:27.134Z,54.42
2023-02-12T19:01:56.456Z,59.70
2023-02-12T19:04:27.900Z,51.08
2023-02-12T19:06:56.671Z,56.67
2023-02-12T19:09:26.832Z,60.80
2023-02-12T19:11:57.243Z,64.90
2023-02-12T19:14:27.891Z,79.97
2023-02-12T19:16:56.507Z,78.15
2023-02-12T19:19:25.344Z,78.45
2023-02-12T19:21:54.250Z,84.97
2023-02-12T19:24:23.144Z,76.18
2023-02-12T19:26:52.874Z,118.55
2023-02-12T19:29:21.938Z,120.50
2023-02-12T19:31:52.181Z,94.80
2023-02-12T19:34:22.375Z,77.88
2023-02-12T19:36:51.301Z,72.10
2023-02-12T19:39:21.945Z,59.92
2023-02-12T19:41:50.996Z,49.33
2023-02-12T19:44:21.088Z,49.80
2023-02-12T19:46:52.204Z,44.53
2023-02-12T19:49:22.515Z,42.75
2023-02-12T19:51:51.887Z,43.35
2023-02-12T19:54:21.613Z,45.75
2023-02-12T19:56:50.894Z,45.17
2023-02-12T19:59:21.125Z,47.25
2023-02-12T20:01:51.645Z,48.88
2023-02-12T20:04:21.809Z,62.47
2023-02-12T20:06:51.113Z,61.92
2023-02-12T20:09:21.132Z,66.13
2023-02-12T20:11:49.807Z,61.80
2023-02-12T20:14:21.039Z,63.95
2023-02-12T20:16:51.872Z,75.95
2023-02-12T20:19:22.605Z,72.13
2023-02-12T20:21:55.251Z,78.03
2023-02-12T20:24:25.570Z,64.63
2023-02-12T20:26:55.020Z,73.85
2023-02-12T20:29:23.576Z,71.70
2023-02-12T20:31:53.896Z,70.97
2023-02-12T20:34:22.400Z,71.53
2023-02-12T20:36:51.251Z,76.05
2023-02-12T20:39:21.298Z,76.47
2023-02-12T20:41:50.310Z,78.43
2023-02-12T20:44:20.757Z,80.50
2023-02-12T20:46:54.489Z,79.63
2023-02-12T20:49:26.751Z,72.57
2023-02-12T20:51:56.152Z,62.37
2023-02-12T20:54:24.975Z,76.13
2023-02-12T20:56:53.669Z,61.03
2023-02-12T20:59:21.845Z,58.13
2023-02-12T21:01:50.915Z,63.83
2023-02-12T21:04:20.376Z,68.57
2023-02-12T21:06:50.273Z,67.28
2023-02-12T21:09:20.087Z,73.68
2023-02-12T21:11:49.082Z,73.88
2023-02-12T21:14:22.567Z,82.43
2023-02-12T21:16:52.635Z,77.30
2023-02-12T21:19:21.608Z,81.13
2023-02-12T21:21:51.591Z,84.05
2023-02-12T21:24:22.057Z,84.78
2023-02-12T21:26:51.122Z,84.32
2023-02-12T21:29:20.377Z,85.72
2023-02-12T21:31:50.712Z,81.28
2023-02-12T21:34:21.337Z,77.63
2023-02-12T21:36:51.895Z,71.18
2023-02-12T21:39:26.269Z,72.53
2023-02-12T21:41:56.827Z,65.57
2023-02-12T21:44:25.932Z,66.97
2023-02-12T21:46:54.782Z,58.28
2023-02-12T21:49:28.030Z,55.55
2023-02-12T21:52:02.128Z,66.28
2023-02-12T21:54:31.114Z,39.50
2023-02-12T21:57:00.337Z,39.80
2023-02-12T21:59:31.750Z,37.47
2023-02-12T22:02:01.887Z,40.08
2023-02-12T22:04:30.612Z,38.42
2023-02-12T22:07:03.274Z,35.10
2023-02-12T22:09:31.918Z,41.67
2023-02-12T22:12:00.385Z,38.72
2023-02-12T22:14:28.710Z,36.70
2023-02-12T22:16:57.214Z,37.53
2023-02-12T22:19:25.521Z,38.33
2023-02-12T22:21:54.026Z,37.53
2023-02-12T22:24:23.660Z,38.53
2023-02-12T22:26:52.122Z,40.10
2023-02-12T22:29:22.769Z,42.55
2023-02-12T22:31:51.456Z,39.78
2023-02-12T22:34:20.494Z,42.08
2023-02-12T22:36:49.215Z,42.92
2023-02-12T22:39:18.759Z,43.05
2023-02-12T22:41:48.918Z,42.60
2023-02-12T22:44:20.058Z,43.55
2023-02-12T22:46:50.449Z,44.15
2023-02-12T22:49:18.951Z,43.58
2023-02-12T22:51:47.443Z,45.17
2023-02-12T22:54:16.669Z,44.53
2023-02-12T22:56:45.698Z,44.35
2023-02-12T22:59:15.262Z,42.35
2023-02-12T23:01:43.842Z,43.05
2023-02-12T23:04:16.120Z,43.83
2023-02-12T23:06:45.298Z,43.28
2023-02-12T23:09:15.360Z,42.60
2023-02-12T23:11:43.897Z,39.95
2023-02-12T23:14:12.315Z,41.67
2023-02-12T23:16:42.268Z,40.40
2023-02-12T23:19:11.767Z,42.20
2023-02-12T23:21:40.380Z,41.78
2023-02-12T23:24:09.028Z,38.60
2023-02-12T23:26:37.809Z,37.38
2023-02-12T23:29:06.066Z,38.40
2023-02-12T23:31:34.800Z,38.90
2023-02-12T23:34:04.469Z,38.17
2023-02-12T23:36:33.218Z,38.60
2023-02-12T23:39:01.448Z,38.17
2023-02-12T23:41:29.907Z,38.53
2023-02-12T23:43:59.650Z,38.70
2023-02-12T23:46:28.137Z,39.28
2023-02-12T23:48:56.446Z,37.83
2023-02-12T23:51:26.340Z,37.33
2023-02-12T23:53:54.634Z,40.60
2023-02-12T23:56:23.242Z,40.85
2023-02-12T23:58:51.727Z,39.28
